createdAt,value
2019-02-28T00:02:13.447Z,15.73
2019-02-28T00:04:44.202Z,14.73
2019-02-28T00:07:17.584Z,15.70
2019-02-28T00:09:48.011Z,14.77
2019-02-28T00:12:19.200Z,14.77
2019-02-28T00:14:50.556Z,14.33
2019-02-28T00:17:21.300Z,14.20
2019-02-28T00:19:52.027Z,15.37
2019-02-28T00:22:24.670Z,14.10
2019-02-28T00:24:55.136Z,13.97
2019-02-28T00:27:25.852Z,14.17
2019-02-28T00:29:56.794Z,15.23
2019-02-28T00:32:27.489Z,14.90
2019-02-28T00:34:58.226Z,14.57
2019-02-28T00:37:29.005Z,14.07
2019-02-28T00:39:59.668Z,15.87
2019-02-28T00:42:30.366Z,14.67
2019-02-28T00:45:02.141Z,15.83
2019-02-28T00:47:33.493Z,14.53
2019-02-28T00:50:06.859Z,15.20
2019-02-28T00:52:38.264Z,15.93
2019-02-28T00:55:09.003Z,14.90
2019-02-28T00:57:40.628Z,13.80
2019-02-28T01:00:12.113Z,15.00
2019-02-28T01:02:42.773Z,14.60
2019-02-28T01:05:14.137Z,14.03
2019-02-28T01:07:48.261Z,15.10
2019-02-28T01:10:17.445Z,14.37
2019-02-28T01:12:53.296Z,14.60
2019-02-28T01:15:20.567Z,15.53
2019-02-28T01:17:51.883Z,14.93
2019-02-28T01:20:22.617Z,14.53
2019-02-28T01:22:53.826Z,15.03
2019-02-28T01:25:24.484Z,14.00
2019-02-28T01:27:55.247Z,14.37
2019-02-28T01:30:25.874Z,15.33
2019-02-28T01:32:56.512Z,13.57
2019-02-28T01:35:27.216Z,13.60
2019-02-28T01:37:57.914Z,14.87
2019-02-28T01:40:28.741Z,14.13
2019-02-28T01:42:59.368Z,13.97
2019-02-28T01:45:30.023Z,15.30
2019-02-28T01:48:00.675Z,14.33
2019-02-28T01:50:31.338Z,13.13
2019-02-28T01:53:01.980Z,13.70
2019-02-28T01:55:32.618Z,14.20
2019-02-28T01:58:03.331Z,13.57
2019-02-28T02:00:34.034Z,13.97
2019-02-28T02:03:05.147Z,14.37
2019-02-28T02:05:35.814Z,13.23
2019-02-28T02:08:07.631Z,14.00
2019-02-28T02:10:38.773Z,13.37
2019-02-28T02:13:09.567Z,13.87
2019-02-28T02:15:40.938Z,13.83
2019-02-28T02:18:11.796Z,12.77
2019-02-28T02:20:42.958Z,13.33
2019-02-28T02:23:18.205Z,12.60
2019-02-28T02:25:47.728Z,14.20
2019-02-28T02:28:18.369Z,13.73
2019-02-28T02:30:50.883Z,14.17
2019-02-28T02:33:21.505Z,12.87
2019-02-28T02:35:52.171Z,12.70
2019-02-28T02:38:22.844Z,13.20
2019-02-28T02:40:59.028Z,12.77
2019-02-28T02:43:25.852Z,11.60
2019-02-28T02:45:56.510Z,12.73
2019-02-28T02:48:27.191Z,11.73
2019-02-28T02:50:57.839Z,11.60
2019-02-28T02:53:28.474Z,12.07
2019-02-28T02:56:03.533Z,11.07
2019-02-28T02:58:31.563Z,11.07
2019-02-28T03:01:02.941Z,10.07
2019-02-28T03:03:33.556Z,9.80
2019-02-28T03:06:12.241Z,9.50
2019-02-28T03:08:37.451Z,9.23
2019-02-28T03:11:08.196Z,8.93
2019-02-28T03:13:43.557Z,9.57
2019-02-28T03:16:12.108Z,10.13
2019-02-28T03:18:43.964Z,9.33
2019-02-28T03:21:15.501Z,9.40
2019-02-28T03:23:46.975Z,8.27
2019-02-28T03:26:17.625Z,8.70
2019-02-28T03:28:48.246Z,8.43
2019-02-28T03:31:18.844Z,9.23
2019-02-28T03:33:49.487Z,8.90
2019-02-28T03:36:20.113Z,8.43
2019-02-28T03:38:50.804Z,8.30
2019-02-28T03:41:21.428Z,9.27
2019-02-28T03:43:53.163Z,8.90
2019-02-28T03:46:23.780Z,9.03
2019-02-28T03:48:54.443Z,9.40
2019-02-28T03:51:28.416Z,9.63
2019-02-28T03:53:57.449Z,9.30
2019-02-28T03:56:28.245Z,9.40
2019-02-28T03:58:59.104Z,9.90
2019-02-28T04:01:29.711Z,9.57
2019-02-28T04:04:00.421Z,8.80
2019-02-28T04:06:31.138Z,10.30
2019-02-28T04:09:07.266Z,9.93
2019-02-28T04:11:35.023Z,9.70
2019-02-28T04:14:05.984Z,9.57
2019-02-28T04:16:36.653Z,10.20
2019-02-28T04:19:08.801Z,9.53
2019-02-28T04:21:46.256Z,10.17
2019-02-28T04:24:13.824Z,8.83
2019-02-28T04:26:44.835Z,9.80
2019-02-28T04:29:15.496Z,10.17
2019-02-28T04:31:46.385Z,10.43
2019-02-28T04:34:17.019Z,10.23
2019-02-28T04:36:47.697Z,9.70
2019-02-28T04:39:18.309Z,9.57
2019-02-28T04:41:48.999Z,10.50
2019-02-28T04:44:19.603Z,10.37
2019-02-28T04:46:50.879Z,10.30
2019-02-28T04:49:22.712Z,11.00
2019-02-28T04:51:53.479Z,10.20
2019-02-28T04:54:24.545Z,10.17
2019-02-28T04:56:56.549Z,11.50
2019-02-28T04:59:27.966Z,11.13
2019-02-28T05:01:58.663Z,10.80
2019-02-28T05:04:29.284Z,11.67
2019-02-28T05:06:59.910Z,11.57
2019-02-28T05:09:30.588Z,11.73
2019-02-28T05:12:02.395Z,10.57
2019-02-28T05:14:33.620Z,12.37
2019-02-28T05:17:04.238Z,11.50
2019-02-28T05:19:35.908Z,13.30
2019-02-28T05:22:08.499Z,11.30
2019-02-28T05:24:42.657Z,12.67
2019-02-28T05:27:11.870Z,11.77
2019-02-28T05:29:43.870Z,12.27
2019-02-28T05:32:14.868Z,13.13
2019-02-28T05:34:51.009Z,12.20
2019-02-28T05:37:19.652Z,14.70
2019-02-28T05:39:52.445Z,14.67
2019-02-28T05:42:24.608Z,14.43
2019-02-28T05:44:55.313Z,14.87
2019-02-28T05:47:26.120Z,14.30
2019-02-28T05:49:57.234Z,14.87
2019-02-28T05:52:30.485Z,15.60
2019-02-28T05:55:00.369Z,15.63
2019-02-28T05:57:32.710Z,16.00
2019-02-28T06:00:03.514Z,16.03
2019-02-28T06:02:34.202Z,17.47
2019-02-28T06:05:05.050Z,17.40
2019-02-28T06:07:36.397Z,18.63
2019-02-28T06:10:08.849Z,17.90
2019-02-28T06:12:43.645Z,18.33
2019-02-28T06:15:13.720Z,17.77
2019-02-28T06:17:44.453Z,17.03
2019-02-28T06:20:16.910Z,19.23
2019-02-28T06:22:48.151Z,18.63
2019-02-28T06:25:40.194Z,18.50
2019-02-28T06:28:12.059Z,19.40
2019-02-28T06:30:43.437Z,18.47
2019-02-28T06:33:14.089Z,19.87
2019-02-28T06:35:44.750Z,20.60
2019-02-28T06:38:16.219Z,20.13
2019-02-28T06:40:53.602Z,19.53
2019-02-28T06:43:24.306Z,19.90
2019-02-28T06:45:54.977Z,19.73
2019-02-28T06:48:26.632Z,20.53
2019-02-28T06:50:57.455Z,19.87
2019-02-28T06:53:31.068Z,19.57
2019-02-28T06:56:02.617Z,20.03
2019-02-28T06:58:33.965Z,19.10
2019-02-28T07:01:06.999Z,20.57
2019-02-28T07:03:38.995Z,19.90
2019-02-28T07:06:14.707Z,21.13
2019-02-28T07:08:47.450Z,19.83
2019-02-28T07:11:19.855Z,20.23
2019-02-28T07:13:52.650Z,21.00
2019-02-28T07:16:37.936Z,19.80
2019-02-28T07:19:11.762Z,20.47
2019-02-28T07:21:44.369Z,20.63
2019-02-28T07:24:15.307Z,20.73
2019-02-28T07:26:45.951Z,20.27
2019-02-28T07:29:16.612Z,19.27
2019-02-28T07:31:47.447Z,19.50
2019-02-28T07:34:21.958Z,21.80
2019-02-28T07:36:50.578Z,20.17
2019-02-28T07:39:21.216Z,20.70
2019-02-28T07:41:51.956Z,20.93
2019-02-28T07:44:22.838Z,23.47
2019-02-28T07:46:53.588Z,22.63
2019-02-28T07:49:25.935Z,23.17
2019-02-28T07:51:57.108Z,23.63
2019-02-28T07:54:28.651Z,23.13
2019-02-28T07:56:59.374Z,23.83
2019-02-28T07:59:30.509Z,23.23
2019-02-28T08:02:06.548Z,23.73
2019-02-28T08:04:38.101Z,23.43
2019-02-28T08:07:29.552Z,23.63
2019-02-28T08:10:01.782Z,23.17
2019-02-28T08:12:33.362Z,24.33
2019-02-28T08:15:05.798Z,24.40
2019-02-28T08:17:36.502Z,22.90
2019-02-28T08:20:07.939Z,24.60
2019-02-28T08:22:38.972Z,27.07
2019-02-28T08:25:11.461Z,26.13
2019-02-28T08:27:42.987Z,26.97
2019-02-28T08:30:19.426Z,27.63
2019-02-28T08:32:51.353Z,28.43
2019-02-28T08:35:22.004Z,27.27
2019-02-28T08:37:56.963Z,26.47
2019-02-28T08:40:26.758Z,27.97
2019-02-28T08:42:57.758Z,28.67
2019-02-28T08:45:32.606Z,29.40
2019-02-28T08:48:00.874Z,28.83
2019-02-28T08:50:31.520Z,31.60
2019-02-28T08:53:02.187Z,30.10
2019-02-28T08:55:32.876Z,29.53
2019-02-28T08:58:06.238Z,29.83
2019-02-28T09:00:37.643Z,30.23
2019-02-28T09:03:08.601Z,30.13
2019-02-28T09:05:39.293Z,31.97
2019-02-28T09:08:09.950Z,31.93
2019-02-28T09:10:43.764Z,30.77
2019-02-28T09:13:13.664Z,31.33
2019-02-28T09:15:44.691Z,32.70
2019-02-28T09:18:15.765Z,30.30
2019-02-28T09:20:46.434Z,30.97
2019-02-28T09:23:17.255Z,30.47
2019-02-28T09:25:48.403Z,31.63
2019-02-28T09:28:20.894Z,32.07
2019-02-28T09:30:52.495Z,31.40
2019-02-28T09:33:23.955Z,30.80
2019-02-28T09:35:54.836Z,30.30
2019-02-28T09:38:25.508Z,31.83
2019-02-28T09:40:56.236Z,31.17
2019-02-28T09:43:26.922Z,33.23
2019-02-28T09:45:57.815Z,30.57
2019-02-28T09:48:28.552Z,32.43
2019-02-28T09:51:00.884Z,31.97
2019-02-28T09:53:31.600Z,30.57
2019-02-28T09:56:02.310Z,31.80
2019-02-28T09:58:32.972Z,32.50
2019-02-28T10:01:05.033Z,31.57
2019-02-28T10:03:35.728Z,30.10
2019-02-28T10:06:06.485Z,32.90
2019-02-28T10:08:37.996Z,30.03
2019-02-28T10:11:08.944Z,30.30
2019-02-28T10:13:39.845Z,31.60
2019-02-28T10:16:13.554Z,30.57
2019-02-28T10:18:52.061Z,31.70
2019-02-28T10:21:26.147Z,32.57
2019-02-28T10:23:57.910Z,32.27
2019-02-28T10:26:28.899Z,32.23
2019-02-28T10:29:01.181Z,33.17
2019-02-28T10:31:38.016Z,32.67
2019-02-28T10:34:04.833Z,32.23
2019-02-28T10:36:35.556Z,31.23
2019-02-28T10:39:08.934Z,30.60
2019-02-28T10:41:40.464Z,31.17
2019-02-28T10:44:11.227Z,30.43
2019-02-28T10:46:43.430Z,30.60
2019-02-28T10:49:14.213Z,28.70
2019-02-28T10:51:49.574Z,32.17
2019-02-28T10:54:17.668Z,32.30
2019-02-28T10:56:48.528Z,31.83
2019-02-28T10:59:21.339Z,31.70
2019-02-28T11:01:52.024Z,28.40
2019-02-28T11:04:24.004Z,30.70
2019-02-28T11:06:54.938Z,27.57
2019-02-28T11:09:29.050Z,28.63
2019-02-28T11:12:00.098Z,27.87
2019-02-28T11:14:30.937Z,28.40
2019-02-28T11:17:01.760Z,26.80
2019-02-28T11:19:32.561Z,27.90
2019-02-28T11:22:04.914Z,27.23
2019-02-28T11:24:36.093Z,28.93
2019-02-28T11:27:08.924Z,26.53
2019-02-28T11:29:41.018Z,27.80
2019-02-28T11:32:12.776Z,26.50
2019-02-28T11:34:45.829Z,27.37
2019-02-28T11:37:16.890Z,27.37
2019-02-28T11:39:47.927Z,27.67
2019-02-28T11:42:18.818Z,28.03
2019-02-28T11:44:49.711Z,28.33
2019-02-28T11:47:23.296Z,27.43
2019-02-28T11:49:54.279Z,26.23
2019-02-28T11:52:27.339Z,25.27
2019-02-28T11:54:58.837Z,24.47
2019-02-28T11:57:29.640Z,25.60
2019-02-28T12:00:01.400Z,25.30
2019-02-28T12:02:32.462Z,23.57
2019-02-28T12:05:03.288Z,24.33
2019-02-28T12:07:35.025Z,25.17
2019-02-28T12:10:07.081Z,23.40
2019-02-28T12:12:38.144Z,23.93
2019-02-28T12:15:11.379Z,26.17
2019-02-28T12:17:42.219Z,25.80
2019-02-28T12:20:14.127Z,24.27
2019-02-28T12:22:49.376Z,26.63
2019-02-28T12:25:20.188Z,25.90
2019-02-28T12:27:50.826Z,26.80
2019-02-28T12:30:25.206Z,26.57
2019-02-28T12:32:56.586Z,25.33
2019-02-28T12:35:28.186Z,25.03
2019-02-28T12:37:59.048Z,25.73
2019-02-28T12:40:30.907Z,27.87
2019-02-28T12:43:01.715Z,25.23
2019-02-28T12:45:35.376Z,25.83
2019-02-28T12:48:06.437Z,26.27
2019-02-28T12:50:37.329Z,27.93
2019-02-28T12:53:08.056Z,25.93
2019-02-28T12:55:40.112Z,24.87
2019-02-28T12:58:11.773Z,26.77
2019-02-28T13:00:43.492Z,25.03
2019-02-28T13:03:19.137Z,26.93
2019-02-28T13:05:48.161Z,28.17
2019-02-28T13:08:19.395Z,25.87
2019-02-28T13:10:51.660Z,25.60
2019-02-28T13:13:27.715Z,27.20
2019-02-28T13:15:56.042Z,29.07
2019-02-28T13:18:27.162Z,28.47
2019-02-28T13:20:58.756Z,29.43
2019-02-28T13:23:32.820Z,29.57
2019-02-28T13:26:02.615Z,29.00
2019-02-28T13:28:33.534Z,26.70
2019-02-28T13:31:04.927Z,28.23
2019-02-28T13:33:35.931Z,30.03
2019-02-28T13:36:07.358Z,29.87
2019-02-28T13:38:38.447Z,30.33
2019-02-28T13:41:09.264Z,29.67
2019-02-28T13:43:40.167Z,29.33
2019-02-28T13:46:12.931Z,29.10
2019-02-28T13:48:43.740Z,29.07
2019-02-28T13:51:14.623Z,29.10
2019-02-28T13:53:45.321Z,28.33
2019-02-28T13:56:17.999Z,28.33
2019-02-28T13:58:48.776Z,26.77
2019-02-28T14:01:20.350Z,28.50
2019-02-28T14:03:52.423Z,29.77
2019-02-28T14:06:33.529Z,28.90
2019-02-28T14:09:06.086Z,29.87
2019-02-28T14:11:38.263Z,30.07
2019-02-28T14:14:08.993Z,30.13
2019-02-28T14:16:39.686Z,29.77
2019-02-28T14:19:10.567Z,29.97
2019-02-28T14:21:42.242Z,30.33
2019-02-28T14:24:12.944Z,30.50
2019-02-28T14:26:46.550Z,29.90
2019-02-28T14:29:16.578Z,29.73
2019-02-28T14:31:47.516Z,30.00
2019-02-28T14:34:18.282Z,29.70
2019-02-28T14:36:49.395Z,30.70
2019-02-28T14:39:20.944Z,30.77
2019-02-28T14:41:51.780Z,30.50
2019-02-28T14:44:22.433Z,29.43
2019-02-28T14:46:54.050Z,29.93
2019-02-28T14:49:24.821Z,30.93
2019-02-28T14:51:55.466Z,30.20
2019-02-28T14:54:26.135Z,29.80
2019-02-28T14:56:56.843Z,30.77
2019-02-28T14:59:28.601Z,30.03
2019-02-28T15:02:00.051Z,30.67
2019-02-28T15:04:30.715Z,29.77
2019-02-28T15:07:03.150Z,30.47
2019-02-28T15:09:34.029Z,28.70
2019-02-28T15:12:04.779Z,29.77
2019-02-28T15:14:36.494Z,28.70
2019-02-28T15:17:07.694Z,30.47
2019-02-28T15:19:38.684Z,31.03
2019-02-28T15:22:09.415Z,30.57
2019-02-28T15:24:43.765Z,30.80
2019-02-28T15:27:14.152Z,29.90
2019-02-28T15:29:44.944Z,30.70
2019-02-28T15:32:17.225Z,32.07
2019-02-28T15:34:48.607Z,28.80
2019-02-28T15:37:19.324Z,31.03
2019-02-28T15:39:50.758Z,28.50
2019-02-28T15:42:21.535Z,28.83
2019-02-28T15:44:52.251Z,30.63
2019-02-28T15:47:24.067Z,29.90
2019-02-28T15:49:54.778Z,29.67
2019-02-28T15:52:25.618Z,30.60
2019-02-28T15:54:56.957Z,32.10
2019-02-28T15:57:30.237Z,34.13
2019-02-28T16:00:01.073Z,32.67
2019-02-28T16:02:31.718Z,32.03
2019-02-28T16:05:05.414Z,34.00
2019-02-28T16:07:34.822Z,31.63
2019-02-28T16:10:06.187Z,33.83
2019-02-28T16:12:37.444Z,33.53
2019-02-28T16:15:11.985Z,34.83
2019-02-28T16:17:42.646Z,32.87
2019-02-28T16:20:13.608Z,34.00
2019-02-28T16:22:45.474Z,32.53
2019-02-28T16:25:20.550Z,34.03
2019-02-28T16:27:51.232Z,32.57
2019-02-28T16:30:22.175Z,32.40
2019-02-28T16:32:52.859Z,33.63
2019-02-28T16:35:23.735Z,34.23
2019-02-28T16:37:55.471Z,33.10
2019-02-28T16:40:27.148Z,33.90
2019-02-28T16:42:57.969Z,32.23
2019-02-28T16:45:37.552Z,33.27
2019-02-28T16:48:07.881Z,33.27
2019-02-28T16:50:39.133Z,33.80
2019-02-28T16:53:14.952Z,35.57
2019-02-28T16:55:43.004Z,34.87
2019-02-28T16:58:14.856Z,35.33
2019-02-28T17:00:46.429Z,35.40
2019-02-28T17:03:17.114Z,35.87
2019-02-28T17:05:47.818Z,35.70
2019-02-28T17:08:19.538Z,34.70
2019-02-28T17:10:50.858Z,35.23
2019-02-28T17:13:43.305Z,34.33
2019-02-28T17:16:37.076Z,34.97
2019-02-28T17:19:08.717Z,35.47
2019-02-28T17:21:40.873Z,36.60
2019-02-28T17:24:12.298Z,34.90
2019-02-28T17:26:56.334Z,34.30
2019-02-28T17:29:35.264Z,35.67
2019-02-28T17:32:06.270Z,37.00
2019-02-28T17:34:37.013Z,35.63
2019-02-28T17:37:07.755Z,36.67
2019-02-28T17:39:38.678Z,36.27
2019-02-28T17:42:14.868Z,35.23
2019-02-28T17:45:16.415Z,37.23
2019-02-28T17:48:36.257Z,37.23
2019-02-28T17:51:49.809Z,40.50
2019-02-28T17:55:10.705Z,41.17
2019-02-28T17:58:24.868Z,41.60
2019-02-28T18:01:29.886Z,40.93
2019-02-28T18:04:49.562Z,41.73
2019-02-28T18:08:04.862Z,41.13
2019-02-28T18:11:30.890Z,41.20
2019-02-28T18:15:18.441Z,41.83
2019-02-28T18:18:41.639Z,41.67
2019-02-28T18:22:20.485Z,42.07
2019-02-28T18:25:38.734Z,42.23
2019-02-28T18:28:43.701Z,45.10
2019-02-28T18:31:22.075Z,44.43
2019-02-28T18:34:20.651Z,42.77
2019-02-28T18:36:52.709Z,41.13
2019-02-28T18:41:51.138Z,41.47
2019-02-28T18:44:27.328Z,42.00
2019-02-28T18:46:58.026Z,41.90
2019-02-28T18:49:29.382Z,42.93
2019-02-28T18:52:00.839Z,40.50
2019-02-28T18:54:31.644Z,40.73
2019-02-28T18:57:04.478Z,40.80
2019-02-28T18:59:35.510Z,40.17
2019-02-28T19:02:06.470Z,39.47
2019-02-28T19:04:37.263Z,42.23
2019-02-28T19:07:08.646Z,41.23
2019-02-28T19:09:40.347Z,42.37
2019-02-28T19:12:11.344Z,42.40
2019-02-28T19:14:42.097Z,42.23
2019-02-28T19:17:13.271Z,44.10
2019-02-28T19:19:44.468Z,41.87
2019-02-28T19:22:15.136Z,39.60
2019-02-28T19:24:46.719Z,42.73
2019-02-28T19:27:18.435Z,41.90
2019-02-28T19:29:49.196Z,42.03
2019-02-28T19:32:19.821Z,43.23
2019-02-28T19:34:59.975Z,43.90
2019-02-28T19:37:39.256Z,43.30
2019-02-28T19:40:20.650Z,44.17
2019-02-28T19:43:03.374Z,45.80
2019-02-28T19:45:47.453Z,44.87
2019-02-28T19:48:27.118Z,45.97
2019-02-28T19:51:07.332Z,44.17
2019-02-28T19:53:49.267Z,44.17
2019-02-28T19:56:30.660Z,46.83
2019-02-28T19:59:14.899Z,46.43
2019-02-28T20:01:56.011Z,51.23
2019-02-28T20:04:37.881Z,49.80
2019-02-28T20:07:19.599Z,49.40
2019-02-28T20:09:51.959Z,47.60
2019-02-28T20:12:22.607Z,45.10
2019-02-28T20:14:53.583Z,42.87
2019-02-28T20:17:24.253Z,41.40
2019-02-28T20:19:55.251Z,41.37
2019-02-28T20:22:25.954Z,39.60
2019-02-28T20:24:57.770Z,38.40
2019-02-28T20:27:28.435Z,39.80
2019-02-28T20:30:03.317Z,38.73
2019-02-28T20:32:34.132Z,38.40
2019-02-28T20:35:06.302Z,39.73
2019-02-28T20:37:37.058Z,39.17
2019-02-28T20:40:11.215Z,35.97
2019-02-28T20:42:42.605Z,37.73
2019-02-28T20:45:17.219Z,35.27
2019-02-28T20:47:47.877Z,35.73
2019-02-28T20:50:26.911Z,38.40
2019-02-28T20:52:57.590Z,36.07
2019-02-28T20:55:28.216Z,37.73
2019-02-28T20:57:58.883Z,38.83
2019-02-28T21:00:29.572Z,37.60
2019-02-28T21:03:00.238Z,35.53
2019-02-28T21:05:30.961Z,36.50
2019-02-28T21:08:01.644Z,34.77
2019-02-28T21:10:32.379Z,34.57
2019-02-28T21:13:03.086Z,36.30
2019-02-28T21:15:33.739Z,36.03
2019-02-28T21:18:04.387Z,35.80
2019-02-28T21:20:35.185Z,34.40
2019-02-28T21:23:05.782Z,33.50
2019-02-28T21:25:36.538Z,35.03
2019-02-28T21:28:07.267Z,33.17
2019-02-28T21:30:38.360Z,33.90
2019-02-28T21:33:09.055Z,32.13
2019-02-28T21:35:40.202Z,32.60
2019-02-28T21:38:10.907Z,32.97
2019-02-28T21:40:41.744Z,32.63
2019-02-28T21:43:12.498Z,35.33
2019-02-28T21:45:43.452Z,33.57
2019-02-28T21:48:14.182Z,32.10
2019-02-28T21:50:44.824Z,32.27
2019-02-28T21:53:16.106Z,34.33
2019-02-28T21:55:48.231Z,32.97
2019-02-28T21:58:19.267Z,33.43
2019-02-28T22:00:50.045Z,32.63
2019-02-28T22:03:20.874Z,33.10
2019-02-28T22:05:51.836Z,33.03
2019-02-28T22:08:22.570Z,31.93
2019-02-28T22:10:53.497Z,32.50
2019-02-28T22:13:33.995Z,32.17
2019-02-28T22:16:04.957Z,32.17
2019-02-28T22:18:35.626Z,30.00
2019-02-28T22:21:06.289Z,31.87
2019-02-28T22:23:36.931Z,32.27
2019-02-28T22:26:07.626Z,32.63
2019-02-28T22:28:40.521Z,31.83
2019-02-28T22:31:22.892Z,32.17
2019-02-28T22:34:07.906Z,30.10
2019-02-28T22:36:41.672Z,31.67
2019-02-28T22:39:13.107Z,30.67
2019-02-28T22:41:43.848Z,31.63
2019-02-28T22:44:15.291Z,31.73
2019-02-28T22:46:46.251Z,30.23
2019-02-28T22:49:17.121Z,30.20
2019-02-28T22:51:49.168Z,31.07
2019-02-28T22:54:20.386Z,31.43
2019-02-28T22:56:52.272Z,31.43
2019-02-28T22:59:23.670Z,31.30
2019-02-28T23:01:55.513Z,30.90
2019-02-28T23:04:26.263Z,30.47
2019-02-28T23:06:57.499Z,30.43
2019-02-28T23:09:28.215Z,31.60
2019-02-28T23:11:58.967Z,30.63
2019-02-28T23:14:29.623Z,29.47
2019-02-28T23:17:01.851Z,30.57
2019-02-28T23:19:33.120Z,29.87
2019-02-28T23:22:03.871Z,29.57
2019-02-28T23:24:34.816Z,30.40
2019-02-28T23:27:19.872Z,31.60
2019-02-28T23:30:53.828Z,31.77
2019-02-28T23:33:24.990Z,30.97
2019-02-28T23:35:56.114Z,30.47
2019-02-28T23:38:26.873Z,30.50
2019-02-28T23:41:00.115Z,30.93
2019-02-28T23:43:31.184Z,31.00
2019-02-28T23:46:02.454Z,30.80
2019-02-28T23:48:33.091Z,31.10
2019-02-28T23:51:03.832Z,30.23
2019-02-28T23:53:34.527Z,32.07
2019-02-28T23:56:05.348Z,32.33
2019-02-28T23:58:36.021Z,32.87
